Time;durP1;ratioP1;P1;durP2;ratioP2;P2;SDS_P1;SDS_P2;PMS_P1;PMS_P2;Temp;Humidity;BMP_temperature;BMP_pressure;BME280_temperature;BME280_humidity;BME280_pressure;Samples;Min_cycle;Max_cycle;Signal;HPM_P1;HPM_P2
2022/12/28 00:01:54;;;;;;;;;;;;;;;;;;4966023;28;20437;-60
2022/12/28 00:04:20;;;;;;;;;;;;;;;;;;4964116;28;19930;-60
2022/12/28 00:06:49;;;;;;;;;;;;;;;;;;4967749;28;19934;-60
2022/12/28 00:09:15;;;;;;;;;;;;;;;;;;4972243;28;19930;-60
2022/12/28 00:11:41;;;;;;;;;;;;;;;;;;4972253;28;19944;-60
2022/12/28 00:14:07;;;;;;;;;;;;;;;;;;4968002;28;20016;-60
2022/12/28 00:16:33;;;;;;;;;;;;;;;;;;4970616;28;19926;-60
2022/12/28 00:18:59;;;;;;;;;;;;;;;;;;4969066;28;20391;-60
2022/12/28 00:21:25;;;;;;;;;;;;;;;;;;4972174;28;20547;-60
2022/12/28 00:23:51;;;;;;;;;;;;;;;;;;4967678;28;20512;-60
2022/12/28 00:26:17;;;;;;;;;;;;;;;;;;4971805;28;20016;-60
2022/12/28 00:28:43;;;;;;;;;;;;;;;;;;4970171;28;20019;-60
2022/12/28 00:31:09;;;;;;;;;;;;;;;;;;4971734;28;20364;-60
2022/12/28 00:33:35;;;;;;;;;;;;;;;;;;4966266;28;19937;-58
2022/12/28 00:36:01;;;;;;;;;;;;;;;;;;4969484;28;19933;-60
2022/12/28 00:38:27;;;;;;;;;;;;;;;;;;4971773;28;19948;-60
2022/12/28 00:40:53;;;;;;;;;;;;;;;;;;4970011;28;19933;-56
2022/12/28 00:43:19;;;;;;;;;;;;;;;;;;4961429;28;19934;-60
2022/12/28 00:45:45;;;;;;;;;;;;;;;;;;4962534;28;20392;-56
2022/12/28 00:48:11;;;;;;;;;;;;;;;;;;4971074;28;19968;-60
2022/12/28 00:50:37;;;;;;;;;;;;;;;;;;4969580;28;19930;-59
2022/12/28 00:53:03;;;;;;;;;;;;;;;;;;4967496;28;20343;-59
2022/12/28 00:55:29;;;;;;;;;;;;;;;;;;4960845;28;19926;-59
2022/12/28 00:57:55;;;;;;;;;;;;;;;;;;4969556;28;19926;-60
2022/12/28 01:00:21;;;;;;;;;;;;;;;;;;4961959;28;19926;-59
2022/12/28 01:02:47;;;;;;;;;;;;;;;;;;4966900;28;19933;-60
2022/12/28 01:05:13;;;;;;;;;;;;;;;;;;4971250;28;20013;-58
2022/12/28 01:07:39;;;;;;;;;;;;;;;;;;4969177;28;20614;-60
2022/12/28 01:10:05;;;;;;;;;;;;;;;;;;4964950;28;19933;-60
2022/12/28 01:12:31;;;;;;;;;;;;;;;;;;4968721;28;19933;-60
2022/12/28 01:14:57;;;;;;;;;;;;;;;;;;4964436;28;19926;-61
2022/12/28 01:17:23;;;;;;;;;;;;;;;;;;4965701;28;19926;-58
2022/12/28 01:19:49;;;;;;;;;;;;;;;;;;4968673;28;20450;-60
2022/12/28 01:22:15;;;;;;;;;;;;;;;;;;4969420;28;20472;-58
2022/12/28 01:24:41;;;;;;;;;;;;;;;;;;4970850;28;20021;-59
2022/12/28 01:27:07;;;;;;;;;;;;;;;;;;4968179;28;19926;-60
2022/12/28 01:29:33;;;;;;;;;;;;;;;;;;4972504;28;20401;-59
2022/12/28 01:31:59;;;;;;;;;;;;;;;;;;4967040;28;19927;-57
2022/12/28 01:34:25;;;;;;;;;;;;;;;;;;4968651;28;19928;-60
2022/12/28 01:36:51;;;;;;;;;;;;;;;;;;4968774;28;19930;-59
2022/12/28 01:39:17;;;;;;;;;;;;;;;;;;4969223;28;20351;-60
2022/12/28 01:41:43;;;;;;;;;;;;;;;;;;4969217;28;19926;-60
2022/12/28 01:44:09;;;;;;;;;;;;;;;;;;4964560;28;19930;-60
2022/12/28 01:46:35;;;;;;;;;;;;;;;;;;4971931;28;19922;-60
2022/12/28 01:49:01;;;;;;;;;;;;;;;;;;4967927;28;19933;-57
2022/12/28 01:51:27;;;;;;;;;;;;;;;;;;4973056;28;20357;-60
2022/12/28 01:53:53;;;;;;;;;;;;;;;;;;4959123;28;19933;-59
2022/12/28 01:56:19;;;;;;;;;;;;;;;;;;4969184;28;19930;-60
2022/12/28 01:58:45;;;;;;;;;;;;;;;;;;4967923;28;20427;-59
2022/12/28 02:01:11;;;;;;;;;;;;;;;;;;4963319;28;19973;-59
2022/12/28 02:03:37;;;;;;;;;;;;;;;;;;4971853;28;20009;-60
2022/12/28 02:06:03;;;;;;;;;;;;;;;;;;5058348;23;19926;-60
2022/12/28 02:08:29;;;;;;;;;;;;;;;;;;4993823;28;19937;-59
2022/12/28 02:10:55;;;;;;;;;;;;;;;;;;4993561;28;20374;-60
2022/12/28 02:13:21;;;;;;;;;;;;;;;;;;4990197;28;19928;-60
2022/12/28 02:15:47;;;;;;;;;;;;;;;;;;4988811;28;19972;-60
2022/12/28 02:18:13;;;;;;;;;;;;;;;;;;4992933;28;20364;-60
2022/12/28 02:20:39;;;;;;;;;;;;;;;;;;4994590;28;19926;-59
2022/12/28 02:23:05;;;;;;;;;;;;;;;;;;4991072;28;19925;-61
2022/12/28 02:25:31;;;;;;;;;;;;;;;;;;4997010;28;19928;-60
2022/12/28 02:27:57;;;;;;;;;;;;;;;;;;4987645;28;20410;-60
2022/12/28 02:30:23;;;;;;;;;;;;;;;;;;4995733;28;19975;-57
2022/12/28 02:32:49;;;;;;;;;;;;;;;;;;4987152;28;20016;-59
2022/12/28 02:35:15;;;;;;;;;;;;;;;;;;5001782;28;19965;-60
2022/12/28 02:37:41;;;;;;;;;;;;;;;;;;4987637;28;19996;-60
2022/12/28 02:40:07;;;;;;;;;;;;;;;;;;4990375;28;19926;-60
2022/12/28 02:42:33;;;;;;;;;;;;;;;;;;4990868;28;19981;-60
2022/12/28 02:50:29;;;;;;;;;;;;;;;;;;5001022;28;20342;-57
2022/12/28 02:52:55;;;;;;;;;;;;;;;;;;4989900;28;20438;-60
2022/12/28 02:58:06;;;;;;;;;;;;;;;;;;4998943;28;19992;-60
2022/12/28 03:00:32;;;;;;;;;;;;;;;;;;4996740;28;19977;-59
2022/12/28 03:02:58;;;;;;;;;;;;;;;;;;4998051;28;19929;-60
2022/12/28 03:08:13;;;;;;;;;;;;;;;;;;4994076;28;20944;-60
2022/12/28 03:08:18;;;;;;;;;;;;;;;;;;4998260;28;20491;-60
2022/12/28 03:10:44;;;;;;;;;;;;;;;;;;4987480;28;20484;-59
2022/12/28 03:13:41;;;;;;;;;;;;;;;;;;5002667;28;19925;-57
2022/12/28 03:15:56;;;;;;;;;;;;;;;;;;4997849;28;19933;-60
2022/12/28 03:32:05;;;;;;;;;;;;;;;;;;5005071;28;19933;-60
2022/12/28 03:34:31;;;;;;;;;;;;;;;;;;4988962;28;19926;-60
2022/12/28 03:36:57;;;;;;;;;;;;;;;;;;4997328;28;20502;-60
2022/12/28 03:39:23;;;;;;;;;;;;;;;;;;5000683;28;20337;-60
2022/12/28 03:41:49;;;;;;;;;;;;;;;;;;5002807;28;19933;-60
2022/12/28 03:44:15;;;;;;;;;;;;;;;;;;5004328;28;19929;-60
2022/12/28 03:46:41;;;;;;;;;;;;;;;;;;4997254;28;19925;-59
2022/12/28 03:49:07;;;;;;;;;;;;;;;;;;5007792;28;20319;-59
2022/12/28 03:51:33;;;;;;;;;;;;;;;;;;5008020;28;19932;-57
2022/12/28 03:53:59;;;;;;;;;;;;;;;;;;5008085;28;19936;-59
2022/12/28 03:56:25;;;;;;;;;;;;;;;;;;5000162;28;20805;-58
2022/12/28 03:58:51;;;;;;;;;;;;;;;;;;5008014;28;20016;-59
2022/12/28 04:01:17;;;;;;;;;;;;;;;;;;5004799;28;19937;-59
2022/12/28 04:03:43;;;;;;;;;;;;;;;;;;5003163;28;20347;-60
2022/12/28 04:06:09;;;;;;;;;;;;;;;;;;4995412;28;19933;-60
2022/12/28 04:08:35;;;;;;;;;;;;;;;;;;5007729;28;19925;-60
2022/12/28 04:11:01;;;;;;;;;;;;;;;;;;5008026;28;20369;-59
2022/12/28 04:13:27;;;;;;;;;;;;;;;;;;5006566;28;19925;-60
2022/12/28 04:15:53;;;;;;;;;;;;;;;;;;5004102;28;19925;-60
2022/12/28 04:18:19;;;;;;;;;;;;;;;;;;5007722;28;20455;-57
2022/12/28 04:20:45;;;;;;;;;;;;;;;;;;5007538;28;19969;-60
2022/12/28 04:23:11;;;;;;;;;;;;;;;;;;5007629;28;19971;-58
2022/12/28 04:25:37;;;;;;;;;;;;;;;;;;5001402;28;20410;-60
2022/12/28 04:28:03;;;;;;;;;;;;;;;;;;5007369;28;19925;-59
2022/12/28 04:30:29;;;;;;;;;;;;;;;;;;5005921;28;19976;-58
2022/12/28 04:32:55;;;;;;;;;;;;;;;;;;5007896;28;20922;-60
2022/12/28 04:35:21;;;;;;;;;;;;;;;;;;4999768;28;20433;-59
2022/12/28 04:37:47;;;;;;;;;;;;;;;;;;5007042;28;19925;-60
2022/12/28 04:40:13;;;;;;;;;;;;;;;;;;5007887;28;19926;-60
2022/12/28 04:42:39;;;;;;;;;;;;;;;;;;5007008;28;19926;-59
2022/12/28 04:45:05;;;;;;;;;;;;;;;;;;5006054;28;19976;-60
2022/12/28 04:47:31;;;;;;;;;;;;;;;;;;5006605;28;19925;-59
2022/12/28 04:49:57;;;;;;;;;;;;;;;;;;4996885;28;19996;-60
2022/12/28 04:52:23;;;;;;;;;;;;;;;;;;5007266;28;19925;-60
2022/12/28 04:54:49;;;;;;;;;;;;;;;;;;5003396;28;20425;-60
2022/12/28 04:57:15;;;;;;;;;;;;;;;;;;5006874;28;19932;-60
2022/12/28 04:59:41;;;;;;;;;;;;;;;;;;5005815;28;19973;-59
2022/12/28 05:02:07;;;;;;;;;;;;;;;;;;5006341;28;20543;-60
2022/12/28 05:04:33;;;;;;;;;;;;;;;;;;4999354;28;19931;-60
2022/12/28 05:06:59;;;;;;;;;;;;;;;;;;4998428;28;19932;-61
2022/12/28 05:09:25;;;;;;;;;;;;;;;;;;5007158;28;19953;-59
2022/12/28 05:11:51;;;;;;;;;;;;;;;;;;5007066;28;19932;-60
2022/12/28 05:14:17;;;;;;;;;;;;;;;;;;4997881;28;19929;-59
2022/12/28 05:16:43;;;;;;;;;;;;;;;;;;5005102;28;19925;-59
2022/12/28 05:19:09;;;;;;;;;;;;;;;;;;5005960;28;19934;-60
2022/12/28 05:21:35;;;;;;;;;;;;;;;;;;4997046;28;20056;-60
2022/12/28 05:24:01;;;;;;;;;;;;;;;;;;5005826;28;20044;-60
2022/12/28 05:26:27;;;;;;;;;;;;;;;;;;5001836;28;19921;-59
2022/12/28 05:28:53;;;;;;;;;;;;;;;;;;5005540;28;19939;-60
2022/12/28 05:31:19;;;;;;;;;;;;;;;;;;5006441;28;19930;-60
2022/12/28 05:33:46;;;;;;;;;;;;;;;;;;5005820;28;20315;-59
2022/12/28 05:36:12;;;;;;;;;;;;;;;;;;4998503;28;20371;-60
2022/12/28 05:38:38;;;;;;;;;;;;;;;;;;5006473;28;20399;-59
2022/12/28 05:41:04;;;;;;;;;;;;;;;;;;5000362;28;19925;-60
2022/12/28 05:43:30;;;;;;;;;;;;;;;;;;5001977;28;20433;-60
2022/12/28 05:45:56;;;;;;;;;;;;;;;;;;5003966;28;19925;-60
2022/12/28 05:48:22;;;;;;;;;;;;;;;;;;5005684;28;20032;-60
2022/12/28 05:50:48;;;;;;;;;;;;;;;;;;5004717;28;20383;-59
2022/12/28 05:53:14;;;;;;;;;;;;;;;;;;5005791;28;19925;-59
2022/12/28 05:55:40;;;;;;;;;;;;;;;;;;5001695;28;20408;-60
2022/12/28 05:58:07;;;;;;;;;;;;;;;;;;5005515;28;20649;-60
2022/12/28 06:00:33;;;;;;;;;;;;;;;;;;4996673;28;19948;-59
2022/12/28 06:02:59;;;;;;;;;;;;;;;;;;5005591;28;20383;-60
2022/12/28 06:05:26;;;;;;;;;;;;;;;;;;4997434;28;19933;-59
2022/12/28 06:07:52;;;;;;;;;;;;;;;;;;5005589;28;19932;-60
2022/12/28 06:10:18;;;;;;;;;;;;;;;;;;5005237;28;19930;-60
2022/12/28 06:12:44;;;;;;;;;;;;;;;;;;5005106;28;19926;-57
2022/12/28 06:15:10;;;;;;;;;;;;;;;;;;4994548;28;19926;-59
2022/12/28 06:17:36;;;;;;;;;;;;;;;;;;5004434;28;20427;-59
2022/12/28 06:20:02;;;;;;;;;;;;;;;;;;5005455;28;19925;-60
2022/12/28 06:22:28;;;;;;;;;;;;;;;;;;5006232;28;20427;-60
2022/12/28 06:24:54;;;;;;;;;;;;;;;;;;5004499;28;19932;-60
2022/12/28 06:27:20;;;;;;;;;;;;;;;;;;5003927;28;19926;-58
2022/12/28 06:29:46;;;;;;;;;;;;;;;;;;5004116;28;19980;-60
2022/12/28 06:32:12;;;;;;;;;;;;;;;;;;4994921;28;20013;-59
2022/12/28 06:34:38;;;;;;;;;;;;;;;;;;4999725;28;19926;-60
2022/12/28 06:37:04;;;;;;;;;;;;;;;;;;5005399;28;19925;-60
2022/12/28 06:39:30;;;;;;;;;;;;;;;;;;5005259;28;19925;-60
2022/12/28 06:41:56;;;;;;;;;;;;;;;;;;5002950;28;19933;-60
2022/12/28 06:44:22;;;;;;;;;;;;;;;;;;4993900;28;19925;-57
2022/12/28 06:46:48;;;;;;;;;;;;;;;;;;5004135;28;20383;-60
2022/12/28 06:49:14;;;;;;;;;;;;;;;;;;5003420;28;19980;-59
2022/12/28 06:51:40;;;;;;;;;;;;;;;;;;5002979;28;19983;-60
2022/12/28 06:54:06;;;;;;;;;;;;;;;;;;5002278;28;19951;-60
2022/12/28 06:56:32;;;;;;;;;;;;;;;;;;5002820;28;20334;-61
2022/12/28 06:58:58;;;;;;;;;;;;;;;;;;5003456;28;19925;-60
2022/12/28 07:01:25;;;;;;;;;;;;;;;;;;5002778;28;20363;-59
2022/12/28 07:03:51;;;;;;;;;;;;;;;;;;5003705;28;19925;-60
2022/12/28 07:06:17;;;;;;;;;;;;;;;;;;5003690;28;19936;-60
2022/12/28 07:08:43;;;;;;;;;;;;;;;;;;5004619;28;20012;-60
2022/12/28 07:11:09;;;;;;;;;;;;;;;;;;4997677;28;19926;-60
2022/12/28 07:13:35;;;;;;;;;;;;;;;;;;4998856;28;19926;-60
2022/12/28 07:16:01;;;;;;;;;;;;;;;;;;4998975;28;19925;-60
2022/12/28 07:18:27;;;;;;;;;;;;;;;;;;4999138;28;20419;-60
2022/12/28 07:20:53;;;;;;;;;;;;;;;;;;5001152;28;19925;-60
2022/12/28 07:23:19;;;;;;;;;;;;;;;;;;5002653;28;20816;-60
2022/12/28 07:25:45;;;;;;;;;;;;;;;;;;5001834;28;20461;-61
2022/12/28 07:28:11;;;;;;;;;;;;;;;;;;4999854;28;20362;-60
2022/12/28 07:30:37;;;;;;;;;;;;;;;;;;5002814;28;19979;-59
2022/12/28 07:33:03;;;;;;;;;;;;;;;;;;4998708;28;20378;-61
2022/12/28 07:35:29;;;;;;;;;;;;;;;;;;5004341;28;19988;-58
2022/12/28 07:37:55;;;;;;;;;;;;;;;;;;5002508;28;20577;-58
2022/12/28 07:40:21;;;;;;;;;;;;;;;;;;5006178;28;20005;-58
2022/12/28 07:42:47;;;;;;;;;;;;;;;;;;5005739;28;19941;-58
2022/12/28 07:45:13;;;;;;;;;;;;;;;;;;5005761;28;19925;-58
2022/12/28 07:47:39;;;;;;;;;;;;;;;;;;5004181;28;19934;-58
2022/12/28 07:50:05;;;;;;;;;;;;;;;;;;5004820;28;19925;-58
2022/12/28 07:52:31;;;;;;;;;;;;;;;;;;5005569;28;20017;-59
2022/12/28 07:54:57;;;;;;;;;;;;;;;;;;5004135;28;19976;-58
2022/12/28 07:57:23;;;;;;;;;;;;;;;;;;5005099;28;19969;-59
2022/12/28 07:59:49;;;;;;;;;;;;;;;;;;5001572;28;20526;-59
2022/12/28 08:02:15;;;;;;;;;;;;;;;;;;5002929;28;19971;-59
2022/12/28 08:04:41;;;;;;;;;;;;;;;;;;5004682;28;19975;-59
2022/12/28 08:07:07;;;;;;;;;;;;;;;;;;5007477;28;19990;-59
2022/12/28 08:09:33;;;;;;;;;;;;;;;;;;5005948;28;20064;-59
2022/12/28 08:11:59;;;;;;;;;;;;;;;;;;5006705;28;20388;-59
2022/12/28 08:14:25;;;;;;;;;;;;;;;;;;5004257;28;19926;-59
2022/12/28 08:16:51;;;;;;;;;;;;;;;;;;5005278;28;19925;-59
2022/12/28 08:19:17;;;;;;;;;;;;;;;;;;5003622;28;20057;-58
2022/12/28 08:21:43;;;;;;;;;;;;;;;;;;5007056;28;20004;-57
2022/12/28 08:24:09;;;;;;;;;;;;;;;;;;5003061;28;19933;-59
2022/12/28 08:26:35;;;;;;;;;;;;;;;;;;5005452;28;20009;-59
2022/12/28 08:29:01;;;;;;;;;;;;;;;;;;4995687;28;19965;-59
2022/12/28 08:31:27;;;;;;;;;;;;;;;;;;4997929;28;19933;-59
2022/12/28 08:33:53;;;;;;;;;;;;;;;;;;5002454;28;19967;-59
2022/12/28 08:36:19;;;;;;;;;;;;;;;;;;5001446;28;20573;-59
2022/12/28 08:38:45;;;;;;;;;;;;;;;;;;4999786;28;19936;-59
2022/12/28 08:41:11;;;;;;;;;;;;;;;;;;4997366;28;20589;-59
2022/12/28 08:43:37;;;;;;;;;;;;;;;;;;4999250;28;19973;-59
2022/12/28 08:46:04;;;;;;;;;;;;;;;;;;4996869;28;19977;-59
2022/12/28 08:48:30;;;;;;;;;;;;;;;;;;5003213;28;19984;-59
2022/12/28 08:50:56;;;;;;;;;;;;;;;;;;4999304;28;19960;-58
2022/12/28 08:53:23;;;;;;;;;;;;;;;;;;4996391;28;20372;-59
2022/12/28 08:55:49;;;;;;;;;;;;;;;;;;4996484;28;19930;-57
2022/12/28 08:58:15;;;;;;;;;;;;;;;;;;4995680;28;19925;-59
2022/12/28 09:00:41;;;;;;;;;;;;;;;;;;4996578;28;20337;-59
2022/12/28 09:03:07;;;;;;;;;;;;;;;;;;4996977;28;19937;-59
2022/12/28 09:05:33;;;;;;;;;;;;;;;;;;4998266;28;19941;-58
2022/12/28 09:07:59;;;;;;;;;;;;;;;;;;5001167;28;19929;-60
2022/12/28 09:10:25;;;;;;;;;;;;;;;;;;4999742;28;20288;-60
2022/12/28 09:12:51;;;;;;;;;;;;;;;;;;4998865;28;20707;-59
2022/12/28 09:15:17;;;;;;;;;;;;;;;;;;4999300;28;20430;-59
2022/12/28 09:17:43;;;;;;;;;;;;;;;;;;5002908;28;20380;-60
2022/12/28 09:20:09;;;;;;;;;;;;;;;;;;5003754;28;20779;-60
2022/12/28 09:22:35;;;;;;;;;;;;;;;;;;4997561;28;20454;-58
2022/12/28 09:25:01;;;;;;;;;;;;;;;;;;4999618;28;19937;-59
2022/12/28 09:27:27;;;;;;;;;;;;;;;;;;5000225;28;19929;-60
2022/12/28 09:29:53;;;;;;;;;;;;;;;;;;4998223;28;20425;-60
2022/12/28 09:32:19;;;;;;;;;;;;;;;;;;4998153;28;19929;-60
2022/12/28 09:34:45;;;;;;;;;;;;;;;;;;5000352;28;19933;-61
2022/12/28 09:37:11;;;;;;;;;;;;;;;;;;4995913;28;19928;-60
2022/12/28 09:39:38;;;;;;;;;;;;;;;;;;5009309;28;19933;-60
2022/12/28 09:42:04;;;;;;;;;;;;;;;;;;4996368;28;19929;-61
2022/12/28 09:44:30;;;;;;;;;;;;;;;;;;4997200;28;19931;-60
2022/12/28 09:46:56;;;;;;;;;;;;;;;;;;4998833;28;19934;-60
2022/12/28 09:49:22;;;;;;;;;;;;;;;;;;4994694;28;19951;-61
2022/12/28 09:51:48;;;;;;;;;;;;;;;;;;4998239;28;20473;-60
2022/12/28 09:54:19;;;;;;;;;;;;;;;;;;4996465;28;20381;-60
2022/12/28 09:56:49;;;;;;;;;;;;;;;;;;4997381;28;19933;-59
2022/12/28 09:59:15;;;;;;;;;;;;;;;;;;4998068;28;19925;-60
2022/12/28 10:01:41;;;;;;;;;;;;;;;;;;4997172;28;20382;-59
2022/12/28 10:04:07;;;;;;;;;;;;;;;;;;4997585;28;19934;-58
2022/12/28 10:06:35;;;;;;;;;;;;;;;;;;4996228;28;19932;-60
2022/12/28 10:09:01;;;;;;;;;;;;;;;;;;4999525;28;19929;-60
2022/12/28 10:11:27;;;;;;;;;;;;;;;;;;4999083;28;19926;-60
2022/12/28 10:13:53;;;;;;;;;;;;;;;;;;5001450;28;19921;-60
2022/12/28 10:16:19;;;;;;;;;;;;;;;;;;5000734;28;20003;-59
2022/12/28 10:18:46;;;;;;;;;;;;;;;;;;5000165;28;19925;-59
2022/12/28 10:21:12;;;;;;;;;;;;;;;;;;5001016;28;19988;-59
2022/12/28 10:23:38;;;;;;;;;;;;;;;;;;5000198;28;19976;-60
2022/12/28 10:26:04;;;;;;;;;;;;;;;;;;5000382;28;20302;-60
2022/12/28 10:28:31;;;;;;;;;;;;;;;;;;4997207;28;19929;-59
2022/12/28 10:30:57;;;;;;;;;;;;;;;;;;4998887;28;19929;-60
2022/12/28 10:33:24;;;;;;;;;;;;;;;;;;5001189;28;19975;-60
2022/12/28 10:35:50;;;;;;;;;;;;;;;;;;5002601;28;19940;-60
2022/12/28 10:38:16;;;;;;;;;;;;;;;;;;5002695;28;19999;-60
2022/12/28 10:40:43;;;;;;;;;;;;;;;;;;5001693;28;19933;-60
2022/12/28 10:43:09;;;;;;;;;;;;;;;;;;5002790;28;19980;-60
2022/12/28 10:45:35;;;;;;;;;;;;;;;;;;5003747;28;19952;-59
2022/12/28 10:48:01;;;;;;;;;;;;;;;;;;5002579;28;19987;-60
2022/12/28 10:50:28;;;;;;;;;;;;;;;;;;5002490;28;19925;-60
2022/12/28 10:52:54;;;;;;;;;;;;;;;;;;5003101;28;19936;-59
2022/12/28 10:55:20;;;;;;;;;;;;;;;;;;5003736;28;19980;-59
2022/12/28 10:57:46;;;;;;;;;;;;;;;;;;5003706;28;20424;-57
2022/12/28 11:00:13;;;;;;;;;;;;;;;;;;5005313;28;20005;-59
2022/12/28 11:02:39;;;;;;;;;;;;;;;;;;5005818;28;20493;-59
2022/12/28 11:05:05;;;;;;;;;;;;;;;;;;5005444;28;19925;-59
2022/12/28 11:07:32;;;;;;;;;;;;;;;;;;5004187;28;19926;-61
2022/12/28 11:09:58;;;;;;;;;;;;;;;;;;5005891;28;19925;-60
2022/12/28 11:12:24;;;;;;;;;;;;;;;;;;5005758;28;19952;-59
2022/12/28 11:14:51;;;;;;;;;;;;;;;;;;5004603;28;19956;-60
2022/12/28 11:17:17;;;;;;;;;;;;;;;;;;5005753;28;19929;-59
2022/12/28 11:19:43;;;;;;;;;;;;;;;;;;5005412;28;20016;-60
2022/12/28 11:22:09;;;;;;;;;;;;;;;;;;5005970;28;20068;-60
2022/12/28 11:24:35;;;;;;;;;;;;;;;;;;5005293;28;19926;-60
2022/12/28 11:27:01;;;;;;;;;;;;;;;;;;5004730;28;19979;-59
2022/12/28 11:29:27;;;;;;;;;;;;;;;;;;5004446;28;20013;-60
2022/12/28 11:31:53;;;;;;;;;;;;;;;;;;5003934;28;19968;-57
2022/12/28 11:34:19;;;;;;;;;;;;;;;;;;5005083;28;19996;-60
2022/12/28 11:36:45;;;;;;;;;;;;;;;;;;5005701;28;19926;-60
2022/12/28 11:39:11;;;;;;;;;;;;;;;;;;5006135;28;19929;-60
2022/12/28 11:41:39;;;;;;;;;;;;;;;;;;5005240;28;20031;-60
2022/12/28 11:44:06;;;;;;;;;;;;;;;;;;5004253;28;19925;-60
2022/12/28 11:46:32;;;;;;;;;;;;;;;;;;5005153;28;19929;-59
2022/12/28 11:48:58;;;;;;;;;;;;;;;;;;5005390;28;19933;-59
2022/12/28 11:51:24;;;;;;;;;;;;;;;;;;5002345;28;20418;-60
2022/12/28 11:53:50;;;;;;;;;;;;;;;;;;4999385;28;20342;-59
2022/12/28 11:56:16;;;;;;;;;;;;;;;;;;5002930;28;19973;-59
2022/12/28 11:58:42;;;;;;;;;;;;;;;;;;5000580;28;19925;-59
2022/12/28 12:01:08;;;;;;;;;;;;;;;;;;5003683;28;19933;-59
2022/12/28 12:03:34;;;;;;;;;;;;;;;;;;5005681;28;19933;-59
2022/12/28 12:06:00;;;;;;;;;;;;;;;;;;5008523;28;19949;-60
2022/12/28 12:08:26;;;;;;;;;;;;;;;;;;5001638;28;19925;-60
2022/12/28 12:10:52;;;;;;;;;;;;;;;;;;5000043;28;19983;-59
2022/12/28 12:13:18;;;;;;;;;;;;;;;;;;5003629;28;19937;-59
2022/12/28 12:15:44;;;;;;;;;;;;;;;;;;5003692;28;19925;-60
2022/12/28 12:18:11;;;;;;;;;;;;;;;;;;5007906;28;20379;-60
2022/12/28 12:20:37;;;;;;;;;;;;;;;;;;5005889;28;20004;-59
2022/12/28 12:23:03;;;;;;;;;;;;;;;;;;5007026;28;19933;-59
2022/12/28 12:25:29;;;;;;;;;;;;;;;;;;5008540;28;20052;-59
2022/12/28 12:27:55;;;;;;;;;;;;;;;;;;5002798;28;20028;-61
2022/12/28 12:30:21;;;;;;;;;;;;;;;;;;5006056;28;19933;-59
2022/12/28 12:32:47;;;;;;;;;;;;;;;;;;5008084;28;19979;-59
2022/12/28 12:35:13;;;;;;;;;;;;;;;;;;5003663;28;19941;-59
2022/12/28 12:37:39;;;;;;;;;;;;;;;;;;5008393;28;19994;-60
2022/12/28 12:40:05;;;;;;;;;;;;;;;;;;5001841;28;20422;-59
2022/12/28 12:42:32;;;;;;;;;;;;;;;;;;5000240;28;20695;-60
2022/12/28 12:44:58;;;;;;;;;;;;;;;;;;5006887;28;19933;-60
2022/12/28 12:47:24;;;;;;;;;;;;;;;;;;5007916;28;22399;-60
2022/12/28 12:49:50;;;;;;;;;;;;;;;;;;5007925;28;20008;-59
2022/12/28 12:52:16;;;;;;;;;;;;;;;;;;5008471;28;20025;-59
2022/12/28 12:54:42;;;;;;;;;;;;;;;;;;5008241;28;19932;-59
2022/12/28 12:57:08;;;;;;;;;;;;;;;;;;5008532;28;19925;-59
2022/12/28 12:59:34;;;;;;;;;;;;;;;;;;5006373;28;20437;-60
2022/12/28 13:02:00;;;;;;;;;;;;;;;;;;5007526;28;19929;-60
2022/12/28 13:04:26;;;;;;;;;;;;;;;;;;5006368;28;19937;-59
2022/12/28 13:06:52;;;;;;;;;;;;;;;;;;5003249;28;20046;-60
2022/12/28 13:09:18;;;;;;;;;;;;;;;;;;5004491;28;19972;-60
2022/12/28 13:11:44;;;;;;;;;;;;;;;;;;5005748;28;19979;-60
2022/12/28 13:14:10;;;;;;;;;;;;;;;;;;5002700;28;20028;-60
2022/12/28 13:16:36;;;;;;;;;;;;;;;;;;5002980;28;20068;-60
2022/12/28 13:19:02;;;;;;;;;;;;;;;;;;5004339;28;19925;-60
2022/12/28 13:21:28;;;;;;;;;;;;;;;;;;5004042;28;19930;-60
2022/12/28 13:23:54;;;;;;;;;;;;;;;;;;5003031;28;19933;-59
2022/12/28 13:26:20;;;;;;;;;;;;;;;;;;5004326;28;19967;-59
2022/12/28 13:28:46;;;;;;;;;;;;;;;;;;5001055;28;20418;-60
2022/12/28 13:31:12;;;;;;;;;;;;;;;;;;5003654;28;19984;-59
2022/12/28 13:33:38;;;;;;;;;;;;;;;;;;5000008;28;19935;-59
2022/12/28 13:36:04;;;;;;;;;;;;;;;;;;5002293;28;19926;-59
2022/12/28 13:38:30;;;;;;;;;;;;;;;;;;5002546;28;19936;-57
2022/12/28 13:40:56;;;;;;;;;;;;;;;;;;5002102;28;19926;-59
2022/12/28 13:43:22;;;;;;;;;;;;;;;;;;5001658;28;19972;-58
2022/12/28 13:45:48;;;;;;;;;;;;;;;;;;5005162;28;19936;-59
2022/12/28 13:48:14;;;;;;;;;;;;;;;;;;5001127;28;19972;-59
2022/12/28 13:50:42;;;;;;;;;;;;;;;;;;5002752;28;19930;-59
2022/12/28 13:53:08;;;;;;;;;;;;;;;;;;5003542;28;19934;-59
2022/12/28 13:55:34;;;;;;;;;;;;;;;;;;5004129;28;19932;-58
2022/12/28 13:58:00;;;;;;;;;;;;;;;;;;5001054;28;19929;-59
2022/12/28 14:00:26;;;;;;;;;;;;;;;;;;5004192;28;20012;-59
2022/12/28 14:02:52;;;;;;;;;;;;;;;;;;5001771;28;19969;-59
2022/12/28 14:05:18;;;;;;;;;;;;;;;;;;5001723;28;19987;-59
2022/12/28 14:07:44;;;;;;;;;;;;;;;;;;5003067;28;20122;-59
2022/12/28 14:10:10;;;;;;;;;;;;;;;;;;5003261;28;19984;-59
2022/12/28 14:12:36;;;;;;;;;;;;;;;;;;5000574;28;19929;-58
2022/12/28 14:15:02;;;;;;;;;;;;;;;;;;5001413;28;19926;-58
2022/12/28 14:17:28;;;;;;;;;;;;;;;;;;5005409;28;19926;-59
2022/12/28 14:19:56;;;;;;;;;;;;;;;;;;5010535;28;19925;-59
2022/12/28 14:22:22;;;;;;;;;;;;;;;;;;5004772;28;19925;-58
2022/12/28 14:24:48;;;;;;;;;;;;;;;;;;5004078;28;19929;-58
2022/12/28 14:27:14;;;;;;;;;;;;;;;;;;5004152;28;20267;-58
2022/12/28 14:29:40;;;;;;;;;;;;;;;;;;5003663;28;19952;-58
2022/12/28 14:32:06;;;;;;;;;;;;;;;;;;5007070;28;19952;-58
2022/12/28 14:34:32;;;;;;;;;;;;;;;;;;5003193;28;19980;-59
2022/12/28 14:36:58;;;;;;;;;;;;;;;;;;5003331;28;19926;-58
2022/12/28 14:39:24;;;;;;;;;;;;;;;;;;5003476;28;19926;-58
2022/12/28 14:41:50;;;;;;;;;;;;;;;;;;5002873;28;19926;-58
2022/12/28 14:44:16;;;;;;;;;;;;;;;;;;5000563;28;19952;-59
2022/12/28 14:46:42;;;;;;;;;;;;;;;;;;5002568;28;19971;-59
2022/12/28 14:49:08;;;;;;;;;;;;;;;;;;5002081;28;19925;-58
2022/12/28 14:51:34;;;;;;;;;;;;;;;;;;5001863;28;19940;-57
2022/12/28 14:54:00;;;;;;;;;;;;;;;;;;5004211;28;19940;-58
2022/12/28 14:56:26;;;;;;;;;;;;;;;;;;5005012;28;19926;-58
2022/12/28 14:58:52;;;;;;;;;;;;;;;;;;5004050;28;20418;-59
2022/12/28 15:01:19;;;;;;;;;;;;;;;;;;5001498;28;19933;-59
2022/12/28 15:03:45;;;;;;;;;;;;;;;;;;5004356;28;19962;-58
2022/12/28 15:06:11;;;;;;;;;;;;;;;;;;5004350;28;19925;-59
2022/12/28 15:08:37;;;;;;;;;;;;;;;;;;5004022;28;20406;-57
2022/12/28 15:11:03;;;;;;;;;;;;;;;;;;5003936;28;20076;-58
2022/12/28 15:13:29;;;;;;;;;;;;;;;;;;5003294;28;19933;-58
2022/12/28 15:15:55;;;;;;;;;;;;;;;;;;5004364;28;19936;-59
2022/12/28 15:18:21;;;;;;;;;;;;;;;;;;5003607;28;19979;-58
2022/12/28 15:20:47;;;;;;;;;;;;;;;;;;5003539;28;19964;-59
2022/12/28 15:23:14;;;;;;;;;;;;;;;;;;5003781;28;19972;-59
2022/12/28 15:25:40;;;;;;;;;;;;;;;;;;5003512;28;19956;-58
2022/12/28 15:28:06;;;;;;;;;;;;;;;;;;4997448;28;19925;-59
2022/12/28 15:30:32;;;;;;;;;;;;;;;;;;5002130;28;20019;-59
2022/12/28 15:32:58;;;;;;;;;;;;;;;;;;5003456;28;20008;-59
2022/12/28 15:35:24;;;;;;;;;;;;;;;;;;5003764;28;19937;-59
2022/12/28 15:37:50;;;;;;;;;;;;;;;;;;5005725;28;20028;-59
2022/12/28 15:40:16;;;;;;;;;;;;;;;;;;5007336;28;19921;-58
2022/12/28 15:42:43;;;;;;;;;;;;;;;;;;5005034;28;20403;-58
2022/12/28 15:45:09;;;;;;;;;;;;;;;;;;5008667;28;19968;-59
2022/12/28 15:47:35;;;;;;;;;;;;;;;;;;5007293;28;19925;-58
2022/12/28 15:50:02;;;;;;;;;;;;;;;;;;5007598;28;19949;-57
2022/12/28 15:52:28;;;;;;;;;;;;;;;;;;5007850;28;20262;-59
2022/12/28 15:54:54;;;;;;;;;;;;;;;;;;5008164;28;19940;-59
2022/12/28 15:57:20;;;;;;;;;;;;;;;;;;5005154;28;20109;-58
2022/12/28 15:59:46;;;;;;;;;;;;;;;;;;5007693;28;19925;-59
2022/12/28 16:02:12;;;;;;;;;;;;;;;;;;5006151;28;19980;-58
2022/12/28 16:04:38;;;;;;;;;;;;;;;;;;5006766;28;19964;-58
2022/12/28 16:07:04;;;;;;;;;;;;;;;;;;5007578;28;19926;-59
2022/12/28 16:09:30;;;;;;;;;;;;;;;;;;5006960;28;19932;-58
2022/12/28 16:11:56;;;;;;;;;;;;;;;;;;5008063;28;20020;-58
2022/12/28 16:14:22;;;;;;;;;;;;;;;;;;5004740;28;19926;-58
2022/12/28 16:16:48;;;;;;;;;;;;;;;;;;5003008;28;21146;-58
2022/12/28 16:19:14;;;;;;;;;;;;;;;;;;5005308;28;19934;-58
2022/12/28 16:21:40;;;;;;;;;;;;;;;;;;4999821;28;19961;-59
2022/12/28 16:24:06;;;;;;;;;;;;;;;;;;5004635;28;19929;-58
2022/12/28 16:26:32;;;;;;;;;;;;;;;;;;5002121;28;19933;-59
2022/12/28 16:28:59;;;;;;;;;;;;;;;;;;5002187;28;19971;-59
2022/12/28 16:31:25;;;;;;;;;;;;;;;;;;5003765;28;19934;-57
2022/12/28 16:33:51;;;;;;;;;;;;;;;;;;5002290;28;20060;-57
2022/12/28 16:36:18;;;;;;;;;;;;;;;;;;5001810;28;20397;-58
2022/12/28 16:38:44;;;;;;;;;;;;;;;;;;5002807;28;19929;-58
2022/12/28 16:41:11;;;;;;;;;;;;;;;;;;5001764;28;19933;-57
2022/12/28 16:43:37;;;;;;;;;;;;;;;;;;5001729;28;19959;-57
2022/12/28 16:46:04;;;;;;;;;;;;;;;;;;5002758;28;20409;-58
2022/12/28 16:48:30;;;;;;;;;;;;;;;;;;5002947;28;19925;-59
2022/12/28 16:50:57;;;;;;;;;;;;;;;;;;5003061;28;20488;-59
2022/12/28 16:53:23;;;;;;;;;;;;;;;;;;5003042;28;19926;-59
2022/12/28 16:55:49;;;;;;;;;;;;;;;;;;4999039;28;20023;-58
2022/12/28 16:58:15;;;;;;;;;;;;;;;;;;4999495;28;20004;-58
2022/12/28 17:00:41;;;;;;;;;;;;;;;;;;5002582;28;19980;-58